Impacts TAF Board INFO
FOR SITUATIONAL AWARENESS. NOT TO BE USED FOR FLIGHT PLANNING PURPOSES.
IDs:

KMIA - Miami Intl, FL, US

Issued at 0301 UTC 20 Aug 2018
Updated at 0335 UTC 20 Aug 2018
Potential Impact None Slight Moderate High
Time0253Z 20/04Z 20/05Z 20/06Z 20/07Z 20/08Z 20/09Z 20/10Z 20/11Z 20/12Z 20/13Z 20/14Z 20/15Z 20/16Z>>
Type OBS PRVL PRVL PRVL PRVL PRVL PRVL PRVL PRVL PRVL PRVL PRVL PRVL PRVL
VIS 10 >6 >6 >6 >6 >6 >6 >6 >6 >6 >6 >6 >6 >6
CIG 250 -- -- -- -- -- -- -- -- -- -- -- 80 80
Cover BKN SCT SCT SCT SCT SCT SCT SCT SCT SCT SCT SCT BKN BKN
FltCat VFR VFR VFR VFR VFR VFR VFR VFR VFR VFR VFR VFR VFR VFR
WX -- -- -- -- -- -- -- -- -- -- -- -- VCSH VCSH
WDir 110 VRB VRB VRB VRB VRB VRB VRB VRB VRB VRB VRB 140 140
WSpd 5 3 3 3 3 3 3 3 3 3 3 3 8 8
WGst -- -- -- -- -- -- -- -- -- -- -- -- -- --

Raw TAF
KMIA 200301Z 2003/2106 VRB03KT P6SM SCT030 SCT080 SCT250
  FM201500 14008KT P6SM VCSH SCT030 BKN080
  FM201800 11010KT P6SM VCSH BKN025 BKN060
  FM210300 VRB03KT P6SM FEW035 SCT080 SCT250


Raw METAR
KMIA 200253Z 11005KT 10SM FEW080 SCT100 BKN250 27/24 A3008 RMK AO2 SLP187 T02720239 53010
KMIA 200153Z 12007KT 10SM SCT170 BKN250 27/23 A3008 RMK AO2 SLP185 T02720233
KMIA 200053Z 09006KT 10SM SCT170 BKN250 27/24 A3004 RMK AO2 SLP172 T02720244

METAR Board
Radar Display
Forecast Discussion

FOR SITUATIONAL AWARENESS. NOT TO BE USED FOR FLIGHT PLANNING PURPOSES.